createdAt,value
2024-04-22T00:00:40.793Z,5.21
2024-04-22T00:01:40.813Z,5.23
2024-04-22T00:02:40.807Z,5.23
2024-04-22T00:03:40.771Z,5.23
2024-04-22T00:04:40.794Z,5.21
2024-04-22T00:05:40.719Z,5.21
2024-04-22T00:06:40.716Z,5.20
2024-04-22T00:07:40.720Z,5.21
2024-04-22T00:08:40.691Z,5.20
2024-04-22T00:09:40.667Z,5.18
2024-04-22T00:10:40.706Z,5.17
2024-04-22T00:11:40.730Z,5.17
2024-04-22T00:12:40.625Z,5.15
2024-04-22T00:13:40.687Z,5.17
2024-04-22T00:14:40.601Z,5.17
2024-04-22T00:15:40.603Z,5.15
2024-04-22T00:16:40.658Z,5.14
2024-04-22T00:17:40.626Z,5.12
2024-04-22T00:18:40.539Z,5.14
2024-04-22T00:19:40.571Z,5.12
2024-04-22T00:20:40.524Z,5.10
2024-04-22T00:21:40.511Z,5.11
2024-04-22T00:22:40.593Z,5.10
2024-04-22T00:23:40.500Z,5.08
2024-04-22T00:24:40.464Z,5.10
2024-04-22T00:25:40.504Z,5.10
2024-04-22T00:26:40.460Z,5.08
2024-04-22T00:27:40.448Z,5.07
2024-04-22T00:28:40.489Z,5.08
2024-04-22T00:29:40.406Z,5.07
2024-04-22T00:30:40.397Z,5.05
2024-04-22T00:31:40.448Z,5.05
2024-04-22T00:32:40.508Z,5.05
2024-04-22T00:33:40.356Z,5.05
2024-04-22T00:34:40.420Z,5.00
2024-04-22T00:35:40.334Z,5.00
2024-04-22T00:36:40.323Z,4.99
2024-04-22T00:37:40.394Z,5.00
2024-04-22T00:38:40.286Z,4.99
2024-04-22T00:39:40.292Z,4.99
2024-04-22T00:40:40.349Z,4.97
2024-04-22T00:41:40.244Z,4.97
2024-04-22T00:42:40.240Z,4.94
2024-04-22T00:43:40.339Z,4.94
2024-04-22T00:44:40.229Z,4.94
2024-04-22T00:45:40.204Z,4.94
2024-04-22T00:46:40.246Z,4.92
2024-04-22T00:47:40.232Z,4.93
2024-04-22T00:48:40.173Z,4.90
2024-04-22T00:49:40.181Z,4.92
2024-04-22T00:50:40.131Z,4.89
2024-04-22T00:51:40.114Z,4.90
2024-04-22T00:52:40.154Z,4.89
2024-04-22T00:53:40.114Z,4.87
2024-04-22T00:54:40.076Z,4.84
2024-04-22T00:55:40.160Z,4.84
2024-04-22T00:56:40.051Z,4.82
2024-04-22T00:57:40.047Z,4.82
2024-04-22T00:58:40.123Z,4.80
2024-04-22T00:59:40.015Z,4.82
2024-04-22T01:00:40.020Z,4.80
2024-04-22T01:01:40.018Z,4.78
2024-04-22T01:02:39.994Z,4.78
2024-04-22T01:03:39.975Z,4.77
2024-04-22T01:04:40.003Z,4.77
2024-04-22T01:05:39.944Z,4.74
2024-04-22T01:06:39.925Z,4.74
2024-04-22T01:07:39.996Z,4.73
2024-04-22T01:08:39.891Z,4.71
2024-04-22T01:09:39.906Z,4.70
2024-04-22T01:10:39.941Z,4.68
2024-04-22T01:11:39.893Z,4.68
2024-04-22T01:12:39.850Z,4.67
2024-04-22T01:13:39.864Z,4.67
2024-04-22T01:14:39.834Z,4.63
2024-04-22T01:15:39.831Z,4.62
2024-04-22T01:16:39.899Z,4.60
2024-04-22T01:17:39.962Z,4.60
2024-04-22T01:18:39.762Z,4.59
2024-04-22T01:19:39.838Z,4.58
2024-04-22T01:20:39.741Z,4.59
2024-04-22T01:21:39.740Z,4.58
2024-04-22T01:22:39.800Z,4.56
2024-04-22T01:23:39.708Z,4.55
2024-04-22T01:24:39.691Z,4.52
2024-04-22T01:25:39.737Z,4.53
2024-04-22T01:26:39.671Z,4.52
2024-04-22T01:27:39.651Z,4.49
2024-04-22T01:28:39.666Z,4.49
2024-04-22T01:29:39.633Z,4.48
2024-04-22T01:30:39.618Z,4.44
2024-04-22T01:31:39.752Z,4.42
2024-04-22T01:32:39.686Z,4.41
2024-04-22T01:33:39.639Z,4.41
2024-04-22T01:34:39.651Z,4.40
2024-04-22T01:35:39.592Z,4.40
2024-04-22T01:36:39.547Z,4.37
2024-04-22T01:37:39.649Z,4.35
2024-04-22T01:38:39.514Z,4.35
2024-04-22T01:39:39.510Z,4.32
2024-04-22T01:40:39.610Z,4.32
2024-04-22T01:41:39.480Z,4.28
2024-04-22T01:42:39.461Z,4.30
2024-04-22T01:43:39.519Z,4.28
2024-04-22T01:44:39.450Z,4.28
2024-04-22T01:45:39.454Z,4.24
2024-04-22T01:46:39.480Z,4.23
2024-04-22T01:47:39.414Z,4.23
2024-04-22T01:48:39.381Z,4.20
2024-04-22T01:49:39.432Z,4.20
2024-04-22T01:50:39.374Z,4.17
2024-04-22T01:51:39.344Z,4.16
2024-04-22T01:52:39.397Z,4.16
2024-04-22T01:53:39.320Z,4.13
2024-04-22T01:54:39.333Z,4.10
2024-04-22T01:55:39.340Z,4.08
2024-04-22T01:56:39.286Z,4.08
2024-04-22T01:57:39.284Z,4.05
2024-04-22T01:58:39.322Z,4.02
2024-04-22T01:59:39.284Z,4.01
2024-04-22T02:00:39.258Z,3.99
2024-04-22T02:01:39.288Z,3.99
2024-04-22T02:02:39.311Z,3.96
2024-04-22T02:03:39.316Z,3.96
2024-04-22T02:04:39.216Z,3.94
2024-04-22T02:05:39.186Z,3.94
2024-04-22T02:06:39.154Z,3.92
2024-04-22T02:07:39.175Z,3.92
2024-04-22T02:08:39.149Z,3.91
2024-04-22T02:09:39.155Z,3.88
2024-04-22T02:10:39.167Z,3.87
2024-04-22T02:11:39.132Z,3.86
2024-04-22T02:12:39.087Z,3.86
2024-04-22T02:13:39.236Z,3.83
2024-04-22T02:14:39.114Z,3.81
2024-04-22T02:15:39.060Z,3.78
2024-04-22T02:16:39.072Z,3.80
2024-04-22T02:17:39.146Z,3.77
2024-04-22T02:18:39.021Z,3.76
2024-04-22T02:19:39.031Z,3.76
2024-04-22T02:20:38.990Z,3.73
2024-04-22T02:21:38.972Z,3.69
2024-04-22T02:22:39.196Z,3.68
2024-04-22T02:23:38.951Z,3.68
2024-04-22T02:24:38.935Z,3.65
2024-04-22T02:25:39.029Z,3.65
2024-04-22T02:26:38.934Z,3.60
2024-04-22T02:27:38.921Z,3.59
2024-04-22T02:28:39.018Z,3.58
2024-04-22T02:29:38.872Z,3.55
2024-04-22T02:30:38.860Z,3.51
2024-04-22T02:31:38.958Z,3.51
2024-04-22T02:32:38.899Z,3.47
2024-04-22T02:33:38.892Z,3.48
2024-04-22T02:34:38.822Z,3.44
2024-04-22T02:35:38.806Z,3.42
2024-04-22T02:36:38.799Z,3.42
2024-04-22T02:37:38.874Z,3.40
2024-04-22T02:38:38.768Z,3.37
2024-04-22T02:39:38.757Z,3.37
2024-04-22T02:40:41.849Z,3.36
2024-04-22T02:41:38.735Z,3.36
2024-04-22T02:42:38.724Z,3.32
2024-04-22T02:43:38.729Z,3.31
2024-04-22T02:44:38.683Z,3.31
2024-04-22T02:45:38.707Z,3.29
2024-04-22T02:46:38.725Z,3.26
2024-04-22T02:47:38.746Z,3.25
2024-04-22T02:48:38.637Z,3.22
2024-04-22T02:49:38.650Z,3.23
2024-04-22T02:50:38.630Z,3.21
2024-04-22T02:51:38.603Z,3.21
2024-04-22T02:52:38.597Z,3.16
2024-04-22T02:53:38.588Z,3.14
2024-04-22T02:54:38.556Z,3.13
2024-04-22T02:55:38.618Z,3.11
2024-04-22T02:56:38.534Z,3.11
2024-04-22T02:57:38.524Z,3.10
2024-04-22T02:58:41.645Z,3.10
2024-04-22T02:59:39.517Z,3.08
2024-04-22T03:00:38.557Z,3.07
2024-04-22T03:01:38.521Z,3.07
2024-04-22T03:02:38.520Z,3.04
2024-04-22T03:03:38.481Z,3.03
2024-04-22T03:04:38.497Z,3.01
2024-04-22T03:05:38.445Z,3.00
2024-04-22T03:06:38.407Z,3.00
2024-04-22T03:07:38.535Z,2.97
2024-04-22T03:08:38.387Z,2.95
2024-04-22T03:09:38.430Z,2.95
2024-04-22T03:10:38.540Z,2.93
2024-04-22T03:11:38.581Z,2.90
2024-04-22T03:12:38.377Z,2.89
2024-04-22T03:13:38.371Z,2.89
2024-04-22T03:14:38.325Z,2.85
2024-04-22T03:15:38.307Z,2.83
2024-04-22T03:16:38.444Z,2.83
2024-04-22T03:17:38.465Z,2.80
2024-04-22T03:18:38.275Z,2.79
2024-04-22T03:19:38.333Z,2.79
2024-04-22T03:20:38.226Z,2.77
2024-04-22T03:21:38.221Z,2.74
2024-04-22T03:22:38.228Z,2.74
2024-04-22T03:23:38.213Z,2.72
2024-04-22T03:24:38.177Z,2.71
2024-04-22T03:25:38.476Z,2.68
2024-04-22T03:26:38.165Z,2.68
2024-04-22T03:27:38.187Z,2.67
2024-04-22T03:28:38.252Z,2.64
2024-04-22T03:29:38.138Z,2.64
2024-04-22T03:30:38.102Z,2.61
2024-04-22T03:31:38.153Z,2.61
2024-04-22T03:32:38.152Z,2.60
2024-04-22T03:33:38.095Z,2.57
2024-04-22T03:34:38.107Z,2.56
2024-04-22T03:35:38.067Z,2.53
2024-04-22T03:36:38.030Z,2.50
2024-04-22T03:37:38.129Z,2.50
2024-04-22T03:38:38.011Z,2.50
2024-04-22T03:39:38.038Z,2.47
2024-04-22T03:40:38.086Z,2.44
2024-04-22T03:41:38.043Z,2.43
2024-04-22T03:42:37.974Z,2.43
2024-04-22T03:43:38.012Z,2.42
2024-04-22T03:44:37.926Z,2.39
2024-04-22T03:45:37.986Z,2.39
2024-04-22T03:46:37.999Z,2.38
2024-04-22T03:47:38.003Z,2.36
2024-04-22T03:48:37.886Z,2.35
2024-04-22T03:49:37.971Z,2.35
2024-04-22T03:50:37.845Z,2.32
2024-04-22T03:51:37.857Z,2.32
2024-04-22T03:52:37.965Z,2.29
2024-04-22T03:53:37.818Z,2.28
2024-04-22T03:54:37.816Z,2.28
2024-04-22T03:55:37.919Z,2.25
2024-04-22T03:56:37.782Z,2.22
2024-04-22T03:57:37.760Z,2.24
2024-04-22T03:58:37.798Z,2.22
2024-04-22T03:59:37.736Z,2.18
2024-04-22T04:00:37.850Z,2.17
2024-04-22T04:01:37.761Z,2.15
2024-04-22T04:02:37.700Z,2.15
2024-04-22T04:03:37.801Z,2.14
2024-04-22T04:04:37.931Z,2.13
2024-04-22T04:05:37.803Z,2.11
2024-04-22T04:07:47.677Z,2.10
2024-04-22T04:08:47.582Z,2.06
2024-04-22T04:09:47.568Z,2.06
2024-04-22T04:10:47.703Z,2.04
2024-04-22T04:11:47.567Z,2.02
2024-04-22T04:12:47.530Z,2.00
2024-04-22T04:13:47.643Z,1.97
2024-04-22T04:14:47.518Z,1.97
2024-04-22T04:15:47.512Z,1.97
2024-04-22T04:16:47.536Z,1.97
2024-04-22T04:17:47.532Z,1.95
2024-04-22T04:18:47.449Z,1.94
2024-04-22T04:19:47.477Z,1.94
2024-04-22T04:20:47.433Z,1.92
2024-04-22T04:21:47.419Z,1.91
2024-04-22T04:22:47.433Z,1.89
2024-04-22T04:23:47.400Z,1.87
2024-04-22T04:24:47.389Z,1.87
2024-04-22T04:25:47.397Z,1.85
2024-04-22T04:26:47.344Z,1.84
2024-04-22T04:27:47.341Z,1.84
2024-04-22T04:28:48.794Z,1.81
2024-04-22T04:29:47.343Z,1.81
2024-04-22T04:30:47.304Z,1.78
2024-04-22T04:31:47.352Z,1.78
2024-04-22T04:32:47.401Z,1.78
2024-04-22T04:33:47.273Z,1.78
2024-04-22T04:34:47.283Z,1.78
2024-04-22T04:35:47.240Z,1.77
2024-04-22T04:36:47.223Z,1.76
2024-04-22T04:37:47.239Z,1.74
2024-04-22T04:38:47.249Z,1.76
2024-04-22T04:39:47.190Z,1.76
2024-04-22T04:40:47.223Z,1.71
2024-04-22T04:41:47.185Z,1.74
2024-04-22T04:42:47.158Z,1.71
2024-04-22T04:43:47.197Z,1.73
2024-04-22T04:44:47.116Z,1.73
2024-04-22T04:45:47.119Z,1.73
2024-04-22T04:46:47.098Z,1.71
2024-04-22T04:47:47.260Z,1.71
2024-04-22T04:48:47.069Z,1.71
2024-04-22T04:49:47.113Z,1.71
2024-04-22T04:50:47.039Z,1.70
2024-04-22T04:51:47.037Z,1.70
2024-04-22T04:52:47.086Z,1.70
2024-04-22T04:53:47.019Z,1.71
2024-04-22T04:54:48.252Z,1.71
2024-04-22T04:55:47.035Z,1.73
2024-04-22T04:56:47.000Z,1.73
2024-04-22T04:57:46.971Z,1.71
2024-04-22T04:58:46.996Z,1.73
2024-04-22T04:59:46.930Z,1.73
2024-04-22T05:00:47.049Z,1.76
2024-04-22T05:01:46.999Z,1.76
2024-04-22T05:02:46.901Z,1.76
2024-04-22T05:03:46.910Z,1.77
2024-04-22T05:04:46.896Z,1.78
2024-04-22T05:05:46.884Z,1.78
2024-04-22T05:06:46.855Z,1.80
2024-04-22T05:07:46.866Z,1.84
2024-04-22T05:08:46.808Z,1.84
2024-04-22T05:09:46.806Z,1.85
2024-04-22T05:10:46.918Z,1.87
2024-04-22T05:11:46.856Z,1.88
2024-04-22T05:12:46.763Z,1.88
2024-04-22T05:13:46.834Z,1.92
2024-04-22T05:14:46.735Z,1.91
2024-04-22T05:15:46.746Z,1.92
2024-04-22T05:16:46.826Z,1.95
2024-04-22T05:17:46.780Z,1.97
2024-04-22T05:18:46.738Z,1.99
2024-04-22T05:19:46.712Z,2.00
2024-04-22T05:20:46.670Z,2.02
2024-04-22T05:21:46.650Z,2.04
2024-04-22T05:22:46.665Z,2.06
2024-04-22T05:23:46.640Z,2.07
2024-04-22T05:24:46.625Z,2.10
2024-04-22T05:25:46.799Z,2.11
2024-04-22T05:26:46.582Z,2.15
2024-04-22T05:27:46.578Z,2.17
2024-04-22T05:28:46.589Z,2.20
2024-04-22T05:29:46.572Z,2.25
2024-04-22T05:30:46.531Z,2.29
2024-04-22T05:31:46.581Z,2.35
2024-04-22T05:32:46.598Z,2.39
2024-04-22T05:33:46.505Z,2.46
2024-04-22T05:34:46.546Z,2.50
2024-04-22T05:35:46.473Z,2.54
2024-04-22T05:36:46.458Z,2.60
2024-04-22T05:37:46.479Z,2.65
2024-04-22T05:38:46.445Z,2.71
2024-04-22T05:39:48.623Z,2.77
2024-04-22T05:40:46.468Z,2.85
2024-04-22T05:41:46.405Z,2.92
2024-04-22T05:42:46.379Z,3.01
2024-04-22T05:43:46.447Z,3.10
2024-04-22T05:44:46.371Z,3.21
2024-04-22T05:45:46.371Z,3.31
2024-04-22T05:46:46.441Z,3.44
2024-04-22T05:47:46.401Z,3.58
2024-04-22T05:48:46.314Z,3.68
2024-04-22T05:49:46.367Z,3.78
2024-04-22T05:50:46.276Z,3.88
2024-04-22T05:51:46.266Z,3.98
2024-04-22T05:52:46.267Z,4.10
2024-04-22T05:53:46.553Z,4.20
2024-04-22T05:54:46.272Z,4.31
2024-04-22T05:55:46.253Z,4.42
2024-04-22T05:56:46.197Z,4.52
2024-04-22T05:57:48.563Z,4.62
2024-04-22T05:58:46.203Z,4.74
2024-04-22T05:59:46.162Z,4.86
2024-04-22T06:00:46.259Z,4.97
2024-04-22T06:01:46.204Z,5.12
2024-04-22T06:02:46.242Z,5.25
2024-04-22T06:03:46.121Z,5.32
2024-04-22T06:04:46.128Z,5.44
2024-04-22T06:05:46.099Z,5.53
2024-04-22T06:06:46.070Z,5.64
2024-04-22T06:07:46.186Z,5.76
2024-04-22T06:08:46.047Z,5.90
2024-04-22T06:09:46.032Z,6.04
2024-04-22T06:10:46.139Z,6.19
2024-04-22T06:11:53.423Z,6.35
2024-04-22T06:12:46.992Z,6.48
2024-04-22T06:13:46.076Z,6.64
2024-04-22T06:14:46.029Z,6.79
2024-04-22T06:15:45.950Z,6.96
2024-04-22T06:16:46.041Z,7.13
2024-04-22T06:17:45.955Z,7.32
2024-04-22T06:18:45.939Z,7.48
2024-04-22T06:19:45.952Z,7.66
2024-04-22T06:20:45.900Z,7.82
2024-04-22T06:21:45.898Z,7.98
2024-04-22T06:22:46.054Z,8.15
2024-04-22T06:23:45.842Z,8.31
2024-04-22T06:24:45.825Z,8.46
2024-04-22T06:25:45.863Z,8.60
2024-04-22T06:26:45.802Z,8.73
2024-04-22T06:27:45.797Z,8.89
2024-04-22T06:28:45.851Z,9.03
2024-04-22T06:29:45.775Z,9.16
2024-04-22T06:30:45.762Z,9.32
2024-04-22T06:31:45.791Z,9.46
2024-04-22T06:32:45.834Z,9.59
2024-04-22T06:33:45.711Z,9.73
2024-04-22T06:34:45.772Z,9.86
2024-04-22T06:35:45.717Z,9.99
2024-04-22T06:36:45.677Z,10.13
2024-04-22T06:37:45.784Z,10.26
2024-04-22T06:38:45.666Z,10.37
2024-04-22T06:39:45.644Z,10.49
2024-04-22T06:40:45.687Z,10.61
2024-04-22T06:41:45.662Z,10.72
2024-04-22T06:42:45.602Z,10.82
2024-04-22T06:43:45.593Z,10.93
2024-04-22T06:44:45.603Z,11.00
2024-04-22T06:45:45.556Z,11.10
2024-04-22T06:46:45.647Z,11.18
2024-04-22T06:47:45.593Z,11.26
2024-04-22T06:48:45.545Z,11.33
2024-04-22T06:49:45.551Z,11.41
2024-04-22T06:50:45.486Z,11.47
2024-04-22T06:51:45.467Z,11.51
2024-04-22T06:52:45.566Z,11.57
2024-04-22T06:53:45.475Z,11.62
2024-04-22T06:54:45.449Z,11.69
2024-04-22T06:55:45.549Z,11.77
2024-04-22T06:56:46.223Z,11.84
2024-04-22T06:57:45.417Z,11.97
2024-04-22T06:58:45.518Z,12.06
2024-04-22T06:59:45.377Z,12.18
2024-04-22T07:00:45.390Z,12.28
2024-04-22T07:01:45.432Z,12.37
2024-04-22T07:02:45.414Z,12.47
2024-04-22T07:03:45.408Z,12.57
2024-04-22T07:04:45.372Z,12.67
2024-04-22T07:05:45.340Z,12.78
2024-04-22T07:06:45.270Z,12.86
2024-04-22T07:07:45.411Z,12.97
2024-04-22T07:08:45.240Z,13.08
2024-04-22T07:09:45.258Z,13.19
2024-04-22T07:10:45.232Z,13.30
2024-04-22T07:11:45.217Z,13.41
2024-04-22T07:12:45.212Z,13.52
2024-04-22T07:13:45.222Z,13.60
2024-04-22T07:14:45.156Z,13.71
2024-04-22T07:15:45.160Z,13.83
2024-04-22T07:16:45.392Z,13.92
2024-04-22T07:17:45.190Z,14.03
2024-04-22T07:18:45.150Z,14.14
2024-04-22T07:19:45.157Z,14.25
2024-04-22T07:20:45.076Z,14.36
2024-04-22T07:21:45.103Z,14.45
2024-04-22T07:22:45.136Z,14.58
2024-04-22T07:23:45.057Z,14.69
2024-04-22T07:24:54.819Z,14.78
2024-04-22T07:25:46.088Z,14.88
2024-04-22T07:26:45.053Z,15.00
2024-04-22T07:27:45.029Z,15.11
2024-04-22T07:28:45.034Z,15.27
2024-04-22T07:29:44.961Z,15.40
2024-04-22T07:30:44.999Z,15.51
2024-04-22T07:31:45.016Z,15.64
2024-04-22T07:32:45.033Z,15.76
2024-04-22T07:33:44.974Z,15.84
2024-04-22T07:34:44.923Z,15.94
2024-04-22T07:35:44.956Z,16.04
2024-04-22T07:36:44.917Z,16.17
2024-04-22T07:37:45.019Z,16.31
2024-04-22T07:38:44.857Z,16.42
2024-04-22T07:39:44.886Z,16.53
2024-04-22T07:40:44.892Z,16.61
2024-04-22T07:41:44.811Z,16.74
2024-04-22T07:42:44.797Z,16.83
2024-04-22T07:43:44.979Z,16.90
2024-04-22T07:44:44.777Z,16.99
2024-04-22T07:45:44.790Z,17.08
2024-04-22T07:46:44.799Z,17.20
2024-04-22T07:47:44.871Z,17.27
2024-04-22T07:48:44.738Z,17.41
2024-04-22T07:49:44.807Z,17.49
2024-04-22T07:50:45.495Z,17.64
2024-04-22T07:51:44.680Z,17.76
2024-04-22T07:52:44.802Z,17.89
2024-04-22T07:53:44.658Z,18.04
2024-04-22T07:54:44.652Z,18.18
2024-04-22T07:55:44.649Z,18.31
2024-04-22T07:56:47.327Z,18.44
2024-04-22T07:57:45.649Z,18.56
2024-04-22T07:58:44.626Z,18.58
2024-04-22T07:59:44.571Z,18.43
2024-04-22T08:00:44.588Z,18.25
2024-04-22T08:01:44.648Z,18.10
2024-04-22T08:02:44.610Z,18.03
2024-04-22T08:03:44.590Z,18.03
2024-04-22T08:04:44.597Z,18.10
2024-04-22T08:05:44.498Z,18.19
2024-04-22T08:06:44.482Z,18.20
2024-04-22T08:07:44.601Z,18.11
2024-04-22T08:08:44.488Z,17.97
2024-04-22T08:09:44.444Z,17.82
2024-04-22T08:10:44.480Z,17.67
2024-04-22T08:11:44.442Z,17.60
2024-04-22T08:12:44.410Z,17.46
2024-04-22T08:13:44.504Z,17.29
2024-04-22T08:14:44.378Z,17.11
2024-04-22T08:15:44.349Z,16.94
2024-04-22T08:16:44.401Z,16.83
2024-04-22T08:17:44.431Z,16.71
2024-04-22T08:18:44.341Z,16.61
2024-04-22T08:19:44.361Z,16.64
2024-04-22T08:20:44.285Z,16.56
2024-04-22T08:21:44.285Z,16.46
2024-04-22T08:22:44.339Z,16.31
2024-04-22T08:23:44.251Z,16.21
2024-04-22T08:24:44.241Z,16.33
2024-04-22T08:25:44.288Z,16.53
2024-04-22T08:26:44.215Z,16.69
2024-04-22T08:27:44.203Z,16.94
2024-04-22T08:28:44.331Z,17.19
2024-04-22T08:29:44.172Z,17.23
2024-04-22T08:30:44.209Z,17.09
2024-04-22T08:31:44.277Z,16.89
2024-04-22T08:32:44.173Z,16.68
2024-04-22T08:33:44.152Z,16.53
2024-04-22T08:34:44.172Z,16.58
2024-04-22T08:35:44.103Z,16.83
2024-04-22T08:36:44.113Z,17.08
2024-04-22T08:37:44.124Z,17.38
2024-04-22T08:38:44.058Z,17.54
2024-04-22T08:39:44.025Z,17.74
2024-04-22T08:40:44.056Z,17.94
2024-04-22T08:41:44.025Z,18.16
2024-04-22T08:42:43.993Z,18.18
2024-04-22T08:43:44.033Z,18.07
2024-04-22T08:44:43.998Z,18.03
2024-04-22T08:45:43.978Z,18.03
2024-04-22T08:46:44.007Z,18.04
2024-04-22T08:47:44.123Z,17.90
2024-04-22T08:48:43.959Z,17.71
2024-04-22T08:49:43.987Z,17.51
2024-04-22T08:50:43.911Z,17.30
2024-04-22T08:51:43.873Z,17.19
2024-04-22T08:52:51.390Z,17.33
2024-04-22T08:53:44.853Z,17.63
2024-04-22T08:54:43.859Z,17.92
2024-04-22T08:55:43.832Z,18.20
2024-04-22T08:56:43.803Z,18.52
2024-04-22T08:57:43.796Z,18.78
2024-04-22T08:58:43.827Z,19.02
2024-04-22T08:59:45.464Z,19.30
2024-04-22T09:00:43.769Z,19.52
2024-04-22T09:01:43.777Z,19.77
2024-04-22T09:02:43.784Z,20.00
2024-04-22T09:03:43.746Z,20.22
2024-04-22T09:04:43.875Z,20.43
2024-04-22T09:05:43.843Z,20.63
2024-04-22T09:06:43.678Z,20.81
2024-04-22T09:07:43.682Z,21.00
2024-04-22T09:08:43.729Z,21.17
2024-04-22T09:10:00.663Z,21.02
2024-04-22T09:11:21.210Z,20.85
2024-04-22T09:12:05.680Z,20.80
2024-04-22T09:12:44.717Z,20.92
2024-04-22T09:13:43.767Z,20.87
2024-04-22T09:14:43.833Z,20.69
2024-04-22T09:15:43.547Z,20.50
2024-04-22T09:16:43.563Z,20.37
2024-04-22T09:17:43.748Z,20.40
2024-04-22T09:18:43.644Z,20.47
2024-04-22T09:19:43.655Z,20.34
2024-04-22T09:20:43.511Z,20.21
2024-04-22T09:21:43.479Z,20.04
2024-04-22T09:22:43.666Z,19.86
2024-04-22T09:23:43.453Z,19.67
2024-04-22T09:24:43.437Z,19.49
2024-04-22T09:25:43.471Z,19.33
2024-04-22T09:26:43.407Z,19.16
2024-04-22T09:27:44.842Z,19.00
2024-04-22T09:28:43.402Z,18.89
2024-04-22T09:29:43.362Z,18.75
2024-04-22T09:30:43.368Z,18.62
2024-04-22T09:31:43.649Z,18.50
2024-04-22T09:32:43.491Z,18.40
2024-04-22T09:33:43.402Z,18.28
2024-04-22T09:34:43.508Z,18.18
2024-04-22T09:35:43.424Z,18.10
2024-04-22T09:36:43.282Z,18.22
2024-04-22T09:37:45.517Z,18.49
2024-04-22T09:38:46.988Z,18.81
2024-04-22T09:39:43.250Z,19.18
2024-04-22T09:40:43.261Z,19.54
2024-04-22T09:41:43.314Z,19.82
2024-04-22T09:42:43.273Z,20.13
2024-04-22T09:43:47.971Z,20.40
2024-04-22T09:44:44.216Z,20.36
2024-04-22T09:45:43.221Z,20.18
2024-04-22T09:46:43.198Z,19.94
2024-04-22T09:47:43.642Z,19.64
2024-04-22T09:48:43.213Z,19.36
2024-04-22T09:49:43.222Z,19.30
2024-04-22T09:50:43.142Z,19.48
2024-04-22T09:51:43.085Z,19.76
2024-04-22T09:52:43.097Z,20.07
2024-04-22T09:53:43.103Z,20.40
2024-04-22T09:54:43.042Z,20.72
2024-04-22T09:55:43.217Z,20.99
2024-04-22T09:56:43.152Z,21.30
2024-04-22T09:57:43.049Z,21.57
2024-04-22T09:58:43.019Z,21.88
2024-04-22T09:59:42.961Z,22.14
2024-04-22T10:00:42.996Z,22.41
2024-04-22T10:01:43.059Z,22.69
2024-04-22T10:02:43.134Z,22.96
2024-04-22T10:03:42.999Z,23.18
2024-04-22T10:04:43.020Z,23.36
2024-04-22T10:05:43.131Z,23.44
2024-04-22T10:06:42.946Z,23.63
2024-04-22T10:07:43.037Z,23.73
2024-04-22T10:08:42.844Z,23.61
2024-04-22T10:09:42.878Z,23.50
2024-04-22T10:10:43.064Z,23.50
2024-04-22T10:11:42.987Z,23.28
2024-04-22T10:12:42.844Z,23.03
2024-04-22T10:13:42.845Z,22.75
2024-04-22T10:14:42.791Z,22.47
2024-04-22T10:15:42.781Z,22.22
2024-04-22T10:16:42.812Z,21.99
2024-04-22T10:17:42.901Z,21.95
2024-04-22T10:18:42.959Z,21.96
2024-04-22T10:19:42.882Z,21.79
2024-04-22T10:20:42.726Z,21.60
2024-04-22T10:21:42.676Z,21.39
2024-04-22T10:22:42.744Z,21.17
2024-04-22T10:23:42.667Z,21.00
2024-04-22T10:24:42.655Z,20.85
2024-04-22T10:25:42.653Z,20.81
2024-04-22T10:26:52.770Z,20.85
2024-04-22T10:27:43.596Z,20.88
2024-04-22T10:28:42.621Z,20.96
2024-04-22T10:29:43.251Z,20.92
2024-04-22T10:30:42.558Z,20.78
2024-04-22T10:31:42.576Z,20.63
2024-04-22T10:32:42.607Z,20.44
2024-04-22T10:33:42.606Z,20.26
2024-04-22T10:34:42.508Z,20.11
2024-04-22T10:35:42.490Z,20.07
2024-04-22T10:36:42.478Z,20.02
2024-04-22T10:37:42.513Z,19.94
2024-04-22T10:38:42.468Z,19.82
2024-04-22T10:39:42.435Z,19.70
2024-04-22T10:40:42.524Z,19.63
2024-04-22T10:41:42.424Z,19.52
2024-04-22T10:42:42.414Z,19.47
2024-04-22T10:43:42.422Z,19.41
2024-04-22T10:44:42.375Z,19.55
2024-04-22T10:45:42.394Z,19.71
2024-04-22T10:46:42.363Z,20.16
2024-04-22T10:47:42.396Z,20.55
2024-04-22T10:48:42.436Z,20.93
2024-04-22T10:49:42.692Z,21.18
2024-04-22T10:50:42.298Z,21.21
2024-04-22T10:51:42.306Z,20.99
2024-04-22T10:52:42.295Z,20.78
2024-04-22T10:53:42.259Z,20.63
2024-04-22T10:54:42.266Z,20.60
2024-04-22T10:55:42.332Z,20.52
2024-04-22T10:56:42.224Z,20.43
2024-04-22T10:57:42.236Z,20.34
2024-04-22T10:58:42.213Z,20.25
2024-04-22T10:59:42.176Z,20.18
2024-04-22T11:00:42.179Z,20.03
2024-04-22T11:01:42.281Z,19.89
2024-04-22T11:02:42.165Z,19.76
2024-04-22T11:03:42.136Z,19.63
2024-04-22T11:04:42.134Z,19.51
2024-04-22T11:05:42.184Z,19.37
2024-04-22T11:06:42.098Z,19.26
2024-04-22T11:07:42.133Z,19.15
2024-04-22T11:08:42.082Z,19.02
2024-04-22T11:09:42.050Z,18.92
2024-04-22T11:10:43.825Z,18.83
2024-04-22T11:11:42.089Z,18.75
2024-04-22T11:12:41.995Z,18.65
2024-04-22T11:13:42.091Z,18.56
2024-04-22T11:14:41.998Z,18.49
2024-04-22T11:15:41.996Z,18.41
2024-04-22T11:16:42.018Z,18.37
2024-04-22T11:17:41.960Z,18.40
2024-04-22T11:18:41.919Z,18.43
2024-04-22T11:19:41.935Z,18.47
2024-04-22T11:20:41.915Z,18.65
2024-04-22T11:21:41.894Z,18.86
2024-04-22T11:22:41.930Z,19.09
2024-04-22T11:23:41.858Z,19.31
2024-04-22T11:24:41.873Z,19.54
2024-04-22T11:25:41.886Z,19.74
2024-04-22T11:26:41.803Z,19.96
2024-04-22T11:27:41.808Z,20.16
2024-04-22T11:28:41.804Z,20.36
2024-04-22T11:29:41.781Z,20.56
2024-04-22T11:30:42.492Z,20.74
2024-04-22T11:31:41.815Z,20.92
2024-04-22T11:32:41.816Z,21.09
2024-04-22T11:33:41.786Z,21.25
2024-04-22T11:34:41.798Z,21.42
2024-04-22T11:35:41.687Z,21.54
2024-04-22T11:36:41.668Z,21.67
2024-04-22T11:37:41.703Z,21.75
2024-04-22T11:38:41.658Z,21.79
2024-04-22T11:39:41.666Z,21.92
2024-04-22T11:40:41.666Z,21.99
2024-04-22T11:41:41.600Z,22.11
2024-04-22T11:42:41.615Z,22.20
2024-04-22T11:43:41.639Z,22.33
2024-04-22T11:44:41.603Z,22.45
2024-04-22T11:45:41.559Z,22.57
2024-04-22T11:46:41.695Z,22.70
2024-04-22T11:47:41.637Z,22.83
2024-04-22T11:48:41.583Z,22.99
2024-04-22T11:49:41.594Z,23.12
2024-04-22T11:50:41.514Z,23.23
2024-04-22T11:51:41.490Z,23.25
2024-04-22T11:52:41.509Z,23.24
2024-04-22T11:53:41.461Z,23.18
2024-04-22T11:54:41.445Z,23.10
2024-04-22T11:55:41.433Z,23.02
2024-04-22T11:56:41.450Z,22.90
2024-04-22T11:57:41.447Z,22.78
2024-04-22T11:58:41.445Z,22.65
2024-04-22T11:59:41.373Z,22.51
2024-04-22T12:00:41.403Z,22.39
2024-04-22T12:01:41.358Z,22.26
2024-04-22T12:02:41.357Z,22.13
2024-04-22T12:03:41.317Z,22.00
2024-04-22T12:04:41.429Z,21.91
2024-04-22T12:05:41.461Z,21.79
2024-04-22T12:06:41.295Z,21.67
2024-04-22T12:07:41.284Z,21.60
2024-04-22T12:08:41.271Z,21.52
2024-04-22T12:09:41.246Z,21.43
2024-04-22T12:10:41.246Z,21.37
2024-04-22T12:11:41.249Z,21.29
2024-04-22T12:12:41.225Z,21.27
2024-04-22T12:13:41.209Z,21.32
2024-04-22T12:14:41.182Z,21.40
2024-04-22T12:15:41.167Z,21.50
2024-04-22T12:16:41.221Z,21.54
2024-04-22T12:17:41.207Z,21.52
2024-04-22T12:18:41.201Z,21.60
2024-04-22T12:19:41.126Z,21.69
2024-04-22T12:20:41.090Z,21.77
2024-04-22T12:21:41.085Z,21.88
2024-04-22T12:22:41.079Z,21.96
2024-04-22T12:23:41.042Z,22.04
2024-04-22T12:24:41.063Z,22.14
2024-04-22T12:25:41.055Z,22.25
2024-04-22T12:26:41.022Z,22.36
2024-04-22T12:27:41.002Z,22.47
2024-04-22T12:28:40.996Z,22.54
2024-04-22T12:29:40.968Z,22.66
2024-04-22T12:30:40.976Z,22.78
2024-04-22T12:31:40.970Z,22.93
2024-04-22T12:32:40.971Z,23.05
2024-04-22T12:33:50.802Z,23.18
2024-04-22T12:34:41.966Z,23.28
2024-04-22T12:35:40.899Z,23.40
2024-04-22T12:36:40.892Z,23.48
2024-04-22T12:37:40.918Z,23.56
2024-04-22T12:38:40.850Z,23.66
2024-04-22T12:39:40.833Z,23.77
2024-04-22T12:40:40.861Z,23.88
2024-04-22T12:41:40.815Z,23.98
2024-04-22T12:42:40.795Z,24.08
2024-04-22T12:43:40.831Z,24.18
2024-04-22T12:44:40.781Z,24.28
2024-04-22T12:45:40.774Z,24.35
2024-04-22T12:46:40.761Z,24.42
2024-04-22T12:47:40.881Z,24.53
2024-04-22T12:48:40.728Z,24.58
2024-04-22T12:49:40.769Z,24.61
2024-04-22T12:50:40.704Z,24.58
2024-04-22T12:51:40.677Z,24.50
2024-04-22T12:52:40.706Z,24.38
2024-04-22T12:53:40.661Z,24.14
2024-04-22T12:54:40.653Z,23.92
2024-04-22T12:55:40.685Z,23.69
2024-04-22T12:56:40.614Z,23.51
2024-04-22T12:57:40.597Z,23.37
2024-04-22T12:58:40.678Z,23.23
2024-04-22T12:59:40.581Z,23.06
2024-04-22T13:00:40.579Z,22.93
2024-04-22T13:01:40.558Z,22.75
2024-04-22T13:02:40.553Z,22.60
2024-04-22T13:03:40.625Z,22.47
2024-04-22T13:04:40.635Z,22.38
2024-04-22T13:05:40.487Z,22.29
2024-04-22T13:06:40.484Z,22.20